Hauptseite
METAR-TAF:

METAR-TAF

Flughäfen :

La Chaux-de-Fonds, Schweiz

Flugplatz Les Eplatures

Breite: 47-05-03N, Länge: 006-47-37E, Höhe: 1027 m

Beobachtung

Neuester Wetterbericht von vor 20 Minuten, um 03:20 UTC
Windstille
Temperatur 7°C
Luftfeuchtigkeit 81%
Luftdruck 1023 hPa
Sichtweite 10 km oder mehr
keine Wolken unter 1500 m und keine Kumulonimbus oder Gewitterwolken

METAR: LSGC 210320Z AUTO 00000KT CAVOK 07/04 Q1023

Zeit: 05:40 (03:40 UTC)

Prognose

Neuester Wetterbericht von vor 13 Stunden und 15 Minuten, um 14:25 UTC
Gültige Prognose vom 20 um 15 UTC bis 20 um 24 UTC
Wind 3 kt aus unterschiedlichen Richtungen
Sichtweite 10 km oder mehr
keine Wolken unter 1500 m und keine Kumulonimbus oder Gewitterwolken

TAF: LSGC 201425Z 2015/2024 VRB03KT CAVOK

Wetterbeobachtungen und Prognosen von mehr als 4000 Flughäfen (METAR und TAF Bericht).

Die verfügbaren Stationen werden durch gelbe und rote Markierungen auf der Karte dargestellt.

Führen Sie die Maus auf sie, um den Namen der Station zu sehen.

Darauf klicken, um die Beobachtung von Wetterbeobachtungen und Prognosen zu sehen.

Um die Karte zu ändern : klicken Sie auf den grünen Tasten mit einem schwarzen Kreuz Zum Vergrößern, auf den grünen Button mit einem Gedankenstrich zu verkleinern, oder auf die grünen Pfeile für benachbarte Karten.


METAR-TAF: